Auburn, CA

12:24 AM PDT on October 15, 2019 (GMT -0700)
Auburn Municipal

Weather History for KAUN - September, 2019

Change the Weather History Date:

Sunday, September 22, 2019

  Actual Average Record
Temperature  
Mean Temperature 70 °F -  
Max Temperature 80 °F 84 °F 103 °F (1949)
Min Temperature 60 °F 56 °F 46 °F (2013)
Cooling Degree Days 5    
Growing Degree Days 20 (Base 50)    
Moisture  
Dew Point 48 °F    
Average Humidity 45    
Maximum Humidity 63    
Minimum Humidity 30    
Precipitation  
Precipitation 0.00 in - - ()
Sea Level Pressure  
Sea Level Pressure 29.94 in    
Wind  
Wind Speed 4 mph ()    
Max Wind Speed 10 mph    
Max Gust Speed 14 mph    
Visibility 10.0 miles    
Events      
Averages and records for this station are not official NWS values.
T = Trace of Precipitation, MM = Missing Value Source: Averaged Metar Reports

Daily Weather History Graph

Daily Weather History Graph

Search for Another Location

Airport or City:

Astronomy

Sep. 22, 2019 Rise Set
Actual Time 6:51 AM PDT 7:01 PM PDT
Civil Twilight 6:25 AM PDT 7:28 PM PDT
Nautical Twilight 5:54 AM PDT 7:59 PM PDT
Astronomical Twilight 5:22 AM PDT 8:30 PM PDT
Moon No Moon Rise 2:58 PM PDT (9/22)
Length of Visible Light 13h 02m
Length of Day
12h 09m
Last Quarter, 43% of the Moon is Illuminated
Sep 22
Last Quarter
Sep 28
New
Oct 5
First Quarter
Oct 13
Full
Oct 21
Last Quarter

Hourly Weather History & Observations

Time (PDT) Temp. Dew Point Humidity Pressure Visibility Wind Dir Wind Speed Gust Speed Precip Events Conditions
12:15 AM 66.2 °F 50.0 °F 56% 29.95 in 10.0 mi East 9.2 mph - N/A   Clear
12:35 AM 66.2 °F 50.0 °F 56% 29.95 in 10.0 mi East 6.9 mph 12.7 mph N/A   Clear
12:55 AM 66.2 °F 50.0 °F 56% 29.95 in 10.0 mi East 8.1 mph - N/A   Clear
1:15 AM 66.2 °F 50.0 °F 56% 29.95 in 10.0 mi Calm Calm - N/A   Clear
1:35 AM 64.4 °F 50.0 °F 59% 29.95 in 10.0 mi East 5.8 mph - N/A   Clear
1:55 AM 66.2 °F 50.0 °F 56% 29.95 in 10.0 mi East 10.4 mph - N/A   Clear
2:15 AM 66.2 °F 50.0 °F 56% 29.95 in 10.0 mi East 8.1 mph - N/A   Clear
2:35 AM 64.4 °F 50.0 °F 59% 29.95 in 10.0 mi East 6.9 mph - N/A   Clear
2:55 AM 66.2 °F 50.0 °F 56% 29.94 in 10.0 mi East 6.9 mph - N/A   Clear
3:15 AM 64.4 °F 48.2 °F 56% 29.94 in 10.0 mi Calm Calm - N/A   Clear
3:35 AM 64.4 °F 48.2 °F 56% 29.94 in 10.0 mi Calm Calm - N/A   Clear
3:55 AM 64.4 °F 48.2 °F 56% 29.94 in 10.0 mi Calm Calm - N/A   Clear
4:15 AM 62.6 °F 48.2 °F 59% 29.94 in 10.0 mi Calm Calm - N/A   Clear
4:35 AM 62.6 °F 48.2 °F 59% 29.94 in 10.0 mi Calm Calm - N/A   Clear
4:55 AM 64.4 °F 48.2 °F 56% 29.95 in 10.0 mi Calm Calm - N/A   Clear
5:15 AM 60.8 °F 48.2 °F 63% 29.95 in 10.0 mi Calm Calm - N/A   Clear
5:35 AM 62.6 °F 48.2 °F 59% 29.95 in 10.0 mi Calm Calm - N/A   Clear
5:55 AM 62.6 °F 48.2 °F 59% 29.95 in 10.0 mi Calm Calm - N/A   Clear
6:15 AM 62.6 °F 48.2 °F 59% 29.96 in 10.0 mi ESE 4.6 mph - N/A   Clear
6:35 AM 62.6 °F 48.2 °F 59% 29.96 in 10.0 mi East 5.8 mph - N/A   Clear
6:55 AM 62.6 °F 48.2 °F 59% 29.96 in 10.0 mi East 8.1 mph - N/A   Clear
7:15 AM 64.4 °F 48.2 °F 56% 29.96 in 10.0 mi East 8.1 mph - N/A   Clear
7:35 AM 64.4 °F 48.2 °F 56% 29.96 in 10.0 mi East 8.1 mph - N/A   Clear
7:55 AM 66.2 °F 48.2 °F 52% 29.96 in 10.0 mi East 8.1 mph 13.8 mph N/A   Clear
8:15 AM 68.0 °F 48.2 °F 49% 29.97 in 10.0 mi East 8.1 mph - N/A   Clear
8:35 AM 68.0 °F 48.2 °F 49% 29.97 in 10.0 mi Calm Calm - N/A   Clear
8:55 AM 71.6 °F 48.2 °F 43% 29.98 in 10.0 mi East 9.2 mph - N/A   Clear
9:15 AM 73.4 °F 48.2 °F 41% 29.98 in 10.0 mi Calm Calm - N/A   Clear
9:35 AM 73.4 °F 48.2 °F 41% 29.98 in 10.0 mi East 4.6 mph - N/A   Clear
9:55 AM 77.0 °F 48.2 °F 36% 29.98 in 10.0 mi SE 5.8 mph - N/A   Clear
10:15 AM 75.2 °F 50.0 °F 41% 29.98 in 10.0 mi Calm Calm - N/A   Clear
10:35 AM 77.0 °F 50.0 °F 39% 29.98 in 10.0 mi Calm Calm - N/A   Clear
10:50 AM 75.2 °F 48.2 °F 38% 29.97 in 10.0 mi SE 5.8 mph - N/A   Clear
11:15 AM 78.8 °F 48.2 °F 34% 29.97 in 10.0 mi Calm Calm - N/A   Clear
11:35 AM 80.6 °F 46.4 °F 30% 29.97 in 10.0 mi South 4.6 mph - N/A   Clear
11:55 AM 80.6 °F 48.2 °F 32% 29.96 in 10.0 mi Calm Calm - N/A   Clear
12:15 PM 78.8 °F 48.2 °F 34% 29.96 in 10.0 mi SW 5.8 mph - N/A   Clear
12:35 PM 78.8 °F 48.2 °F 34% 29.96 in 10.0 mi WSW 8.1 mph - N/A   Clear
12:55 PM 78.8 °F 48.2 °F 34% 29.95 in 10.0 mi WSW 5.8 mph - N/A   Clear
1:15 PM 77.0 °F 48.2 °F 36% 29.95 in 10.0 mi Calm Calm - N/A   Clear
1:35 PM 77.0 °F 50.0 °F 39% 29.95 in 10.0 mi Calm Calm - N/A   Clear
1:55 PM 77.0 °F 50.0 °F 39% 29.95 in 10.0 mi West 5.8 mph - N/A   Clear
2:15 PM 78.8 °F 50.0 °F 36% 29.95 in 10.0 mi West 4.6 mph - N/A   Clear
2:35 PM 78.8 °F 48.2 °F 34% 29.94 in 10.0 mi Calm Calm - N/A   Clear
2:55 PM 80.6 °F 50.0 °F 34% 29.94 in 10.0 mi Calm Calm - N/A   Clear
3:15 PM 80.6 °F 48.2 °F 32% 29.93 in 10.0 mi Calm Calm - N/A   Clear
3:35 PM 80.6 °F 46.4 °F 30% 29.93 in 10.0 mi Calm Calm - N/A   Clear
3:55 PM 80.6 °F 48.2 °F 32% 29.92 in 10.0 mi Calm Calm - N/A   Clear
4:15 PM 80.6 °F 48.2 °F 32% 29.92 in 10.0 mi Calm Calm 11.5 mph N/A   Clear
4:35 PM 78.8 °F 48.2 °F 34% 29.91 in 10.0 mi West 5.8 mph - N/A   Clear
4:55 PM 80.6 °F 48.2 °F 32% 29.92 in 10.0 mi Calm Calm - N/A   Clear
5:15 PM 80.6 °F 48.2 °F 32% 29.91 in 10.0 mi Calm Calm - N/A   Clear
5:35 PM 78.8 °F 46.4 °F 32% 29.91 in 10.0 mi Calm Calm - N/A   Clear
5:55 PM 78.8 °F 46.4 °F 32% 29.91 in 10.0 mi Calm Calm - N/A   Clear
6:15 PM 77.0 °F 46.4 °F 34% 29.91 in 10.0 mi Calm Calm - N/A   Clear
6:35 PM 77.0 °F 46.4 °F 34% 29.91 in 10.0 mi Calm Calm - N/A   Clear
6:55 PM 75.2 °F 46.4 °F 36% 29.91 in 10.0 mi Calm Calm - N/A   Clear
7:15 PM 73.4 °F 46.4 °F 38% 29.90 in 10.0 mi Calm Calm - N/A   Clear
7:35 PM 73.4 °F 46.4 °F 38% 29.90 in 10.0 mi Calm Calm - N/A   Clear
7:55 PM 71.6 °F 46.4 °F 41% 29.90 in 10.0 mi Calm Calm - N/A   Clear
8:15 PM 71.6 °F 46.4 °F 41% 29.91 in 10.0 mi Calm Calm - N/A   Clear
8:35 PM 71.6 °F 46.4 °F 41% 29.92 in 10.0 mi Calm Calm - N/A   Clear
8:55 PM 69.8 °F 44.6 °F 40% 29.92 in 10.0 mi ESE 4.6 mph - N/A   Partly Cloudy
9:15 PM 69.8 °F 46.4 °F 43% 29.93 in 10.0 mi Calm Calm - N/A   Mostly Cloudy
9:35 PM 69.8 °F 46.4 °F 43% 29.93 in 10.0 mi Calm Calm - N/A   Partly Cloudy
9:55 PM 68.0 °F 46.4 °F 46% 29.92 in 10.0 mi ESE 6.9 mph - N/A   Clear
10:15 PM 68.0 °F 48.2 °F 49% 29.92 in 10.0 mi Calm Calm - N/A   Clear
10:35 PM 68.0 °F 48.2 °F 49% 29.92 in 10.0 mi East 8.1 mph - N/A   Partly Cloudy
10:55 PM 66.2 °F 48.2 °F 52% 29.92 in 10.0 mi ESE 5.8 mph - N/A   Clear
11:15 PM 68.0 °F 48.2 °F 49% 29.93 in 10.0 mi ESE 9.2 mph - N/A   Partly Cloudy
11:35 PM 68.0 °F 48.2 °F 49% 29.92 in 10.0 mi ESE 8.1 mph - N/A   Partly Cloudy
11:55 PM 68.0 °F 48.2 °F 49% 29.92 in 10.0 mi ESE 9.2 mph - N/A   Scattered Clouds